Urbanna, VA (23175)

11:33 AM EST on February 07, 2016 (GMT -0500)
Remlik Hall Farm | | Change Station
CLOSE
Current Station
Personal Weather Station
Location: Urbanna, VA
Elevation: 15 ft
Nearby Weather Stations

Elev 15 ft 37.67 °N, 76.60 °W | Updated 2 minutes ago

Clear
Clear
40.5 °F
Feels Like 36 °F
N
7.3
Wind Variable Wind from ENE

Today
High -- | Low -- °F
--% Chance of Precip.
Yesterday
High -- | Low -- °F
Precip. -- in
Pressure 30.13 in
Visibility 10.0 miles
Clouds Clear
Windchill 36 °F
Dew Point 30 °F
Humidity 65%
Rainfall 0.00 in
Snow Depth Not available.
7:05 AM 5:36 PM
Waning Crescent, 1% visible
METAR KFYJ 071615Z AUTO 03005KT 10SM CLR 05/M03 A3013 RMK AO2 T00451034
Pressure 30.13 in
Visibility 10.0 miles
Clouds Clear
Windchill 36 °F
Dew Point 30 °F
Humidity 65%
Rainfall 0.00 in
Snow Depth Not available.
7:05 AM 5:36 PM
Waning Crescent, 1% visible
METAR KFYJ 071615Z AUTO 03005KT 10SM CLR 05/M03 A3013 RMK AO2 T00451034

10-Day Weather Forecast

Almanac

Astronomy

Feb. 07, 2016 Rise Set
Actual Time
Civil Twilight
Nautical Twilight
Astronomical Twilight
Moon
Length of Visible Light
Length of Day
Tomorrow will be .
, % of the Moon is Illuminated

Today's Extremes

State Highs State Lows

Community

WunderPhotos

Upload Photos

1,891,228 photos uploaded!

WunderBlog® & News

Nearby

Air Quality

  Air Quality AQ Index Pollutant
Not available.

Snow Depth

Station Depth Elevation

Earthquake Activity

City Distance Mag. Time & Date
Minimum magnitude displayed is 2.5.

Coastal Water Temperatures

Place Temperature

Stations

Nearby Weather Stations

Station Location Temp. Windchill Dew Point Humidity Wind Precip. Elev Updated Type
                   

Watches & Warnings

There are currently no watches in effect.